sensor_id;sensor_type;location;lat;lon;timestamp;pressure;altitude;pressure_sealevel;temperature;humidity
53699;BME280;68408;53.952;27.612;2024-01-06T00:01:34;1005.7;;;-4.9;55.1
53699;BME280;68408;53.952;27.612;2024-01-06T00:07:02;1005.7;;;-5;55
53699;BME280;68408;53.952;27.612;2024-01-06T00:12:16;1005.8;;;-5;54.9
53699;BME280;68408;53.952;27.612;2024-01-06T00:16:36;1005.8;;;-5.1;54.8
53699;BME280;68408;53.952;27.612;2024-01-06T00:22:16;1005.9;;;-5.1;54.9
53699;BME280;68408;53.952;27.612;2024-01-06T00:27:10;1006;;;-5.1;55
53699;BME280;68408;53.952;27.612;2024-01-06T00:31:34;1006;;;-5.2;54.8
53699;BME280;68408;53.952;27.612;2024-01-06T00:36:52;1006;;;-5.1;54.5
53699;BME280;68408;53.952;27.612;2024-01-06T00:42:06;1006;;;-5.1;54.4
53699;BME280;68408;53.952;27.612;2024-01-06T00:47:14;1006.1;;;-5.2;54.3
53699;BME280;68408;53.952;27.612;2024-01-06T00:52:16;1006.1;;;-5.2;54.3
53699;BME280;68408;53.952;27.612;2024-01-06T00:56:48;1006.2;;;-5.3;54.2
53699;BME280;68408;53.952;27.612;2024-01-06T01:02:18;1006.3;;;-5.3;54.1
53699;BME280;68408;53.952;27.612;2024-01-06T01:06:34;1006.3;;;-5.4;54.2
53699;BME280;68408;53.952;27.612;2024-01-06T01:11:34;1006.4;;;-5.4;54.1
53699;BME280;68408;53.952;27.612;2024-01-06T01:16:54;1006.4;;;-5.4;54.1
53699;BME280;68408;53.952;27.612;2024-01-06T01:22:18;1006.5;;;-5.5;54
53699;BME280;68408;53.952;27.612;2024-01-06T01:27:04;1006.5;;;-5.5;54
53699;BME280;68408;53.952;27.612;2024-01-06T01:32:06;1006.6;;;-5.5;54.1
53699;BME280;68408;53.952;27.612;2024-01-06T01:37:16;1006.6;;;-5.6;54.1
53699;BME280;68408;53.952;27.612;2024-01-06T01:41:42;1006.6;;;-5.6;54.2
53699;BME280;68408;53.952;27.612;2024-01-06T01:47:18;1006.6;;;-5.7;54.2
53699;BME280;68408;53.952;27.612;2024-01-06T01:51:54;1006.6;;;-5.7;54.2
53699;BME280;68408;53.952;27.612;2024-01-06T01:56:48;1006.7;;;-5.7;54.1
53699;BME280;68408;53.952;27.612;2024-01-06T02:02:00;1006.7;;;-5.8;54.2
53699;BME280;68408;53.952;27.612;2024-01-06T02:07:08;1006.8;;;-5.8;54.4
53699;BME280;68408;53.952;27.612;2024-01-06T02:11:42;1006.8;;;-5.8;54.6
53699;BME280;68408;53.952;27.612;2024-01-06T02:16:52;1006.8;;;-5.8;54.5
53699;BME280;68408;53.952;27.612;2024-01-06T02:22:02;1006.8;;;-5.8;54.4
53699;BME280;68408;53.952;27.612;2024-01-06T02:26:34;1006.7;;;-5.8;54.5
53699;BME280;68408;53.952;27.612;2024-01-06T02:31:48;1006.8;;;-5.6;54.4
53699;BME280;68408;53.952;27.612;2024-01-06T02:36:54;1006.7;;;-5.5;54.2
53699;BME280;68408;53.952;27.612;2024-01-06T02:42:16;1006.7;;;-5.4;54.1
53699;BME280;68408;53.952;27.612;2024-01-06T02:46:54;1006.7;;;-5.3;54
53699;BME280;68408;53.952;27.612;2024-01-06T02:51:34;1006.7;;;-5.2;53.8
53699;BME280;68408;53.952;27.612;2024-01-06T02:57:16;1006.7;;;-5.1;53.7
53699;BME280;68408;53.952;27.612;2024-01-06T03:02:02;1006.8;;;-5.1;54
53699;BME280;68408;53.952;27.612;2024-01-06T03:06:48;1006.7;;;-5.1;54.5
53699;BME280;68408;53.952;27.612;2024-01-06T03:11:48;1006.8;;;-5;54.7
53699;BME280;68408;53.952;27.612;2024-01-06T03:17:04;1006.7;;;-5;55.1
53699;BME280;68408;53.952;27.612;2024-01-06T03:21:48;1006.7;;;-4.9;55.3
53699;BME280;68408;53.952;27.612;2024-01-06T03:26:40;1006.7;;;-4.9;55.6
53699;BME280;68408;53.952;27.612;2024-01-06T03:32:16;1006.7;;;-4.8;56
53699;BME280;68408;53.952;27.612;2024-01-06T03:36:54;1006.8;;;-4.8;56.6
53699;BME280;68408;53.952;27.612;2024-01-06T03:41:34;1006.8;;;-4.7;56.9
53699;BME280;68408;53.952;27.612;2024-01-06T03:47:06;1006.8;;;-4.7;57.2
53699;BME280;68408;53.952;27.612;2024-01-06T03:51:40;1006.8;;;-4.7;57.4
53699;BME280;68408;53.952;27.612;2024-01-06T03:56:50;1006.9;;;-4.6;57.5
53699;BME280;68408;53.952;27.612;2024-01-06T04:01:40;1006.9;;;-4.5;57.4
53699;BME280;68408;53.952;27.612;2024-01-06T04:07:06;1006.9;;;-4.5;57.6
53699;BME280;68408;53.952;27.612;2024-01-06T04:12:16;1006.9;;;-4.4;57.7
53699;BME280;68408;53.952;27.612;2024-01-06T04:17:04;1007;;;-4.4;57.5
53699;BME280;68408;53.952;27.612;2024-01-06T04:21:52;1006.9;;;-4.4;57.7
53699;BME280;68408;53.952;27.612;2024-01-06T04:26:34;1006.9;;;-4.3;57.8
53699;BME280;68408;53.952;27.612;2024-01-06T04:31:42;1007;;;-4.3;57.9
53699;BME280;68408;53.952;27.612;2024-01-06T04:37:18;1007;;;-4.2;58
53699;BME280;68408;53.952;27.612;2024-01-06T04:41:34;1007;;;-4.2;58
53699;BME280;68408;53.952;27.612;2024-01-06T04:47:18;1007.1;;;-4.2;57.9
53699;BME280;68408;53.952;27.612;2024-01-06T04:52:18;1007.2;;;-4.1;57.6
53699;BME280;68408;53.952;27.612;2024-01-06T04:57:04;1007.2;;;-4;57.5
53699;BME280;68408;53.952;27.612;2024-01-06T05:01:35;1007.2;;;-3.9;57.3
53699;BME280;68408;53.952;27.612;2024-01-06T05:06:54;1007.3;;;-3.9;57.2
53699;BME280;68408;53.952;27.612;2024-01-06T05:12:18;1007.3;;;-3.8;57.3
53699;BME280;68408;53.952;27.612;2024-01-06T05:17:16;1007.3;;;-3.8;57.3
53699;BME280;68408;53.952;27.612;2024-01-06T05:22:16;1007.4;;;-3.8;57.5
53699;BME280;68408;53.952;27.612;2024-01-06T05:27:16;1007.4;;;-3.8;57.5
53699;BME280;68408;53.952;27.612;2024-01-06T05:31:34;1007.4;;;-3.7;57.4
53699;BME280;68408;53.952;27.612;2024-01-06T05:36:34;1007.4;;;-3.7;57.2
53699;BME280;68408;53.952;27.612;2024-01-06T05:41:37;1007.4;;;-3.8;57.4
53699;BME280;68408;53.952;27.612;2024-01-06T05:47:14;1007.5;;;-3.8;57.5
53699;BME280;68408;53.952;27.612;2024-01-06T05:52:04;1007.5;;;-3.8;57.6
53699;BME280;68408;53.952;27.612;2024-01-06T05:56:55;1007.5;;;-3.9;57.8
53699;BME280;68408;53.952;27.612;2024-01-06T06:02:18;1007.5;;;-3.9;58
53699;BME280;68408;53.952;27.612;2024-01-06T06:06:50;1007.6;;;-3.8;57.9
53699;BME280;68408;53.952;27.612;2024-01-06T06:12:18;1007.6;;;-3.7;57.9
53699;BME280;68408;53.952;27.612;2024-01-06T06:16:52;1007.8;;;-3.7;57.8
53699;BME280;68408;53.952;27.612;2024-01-06T06:22:02;1007.8;;;-3.6;57.8
53699;BME280;68408;53.952;27.612;2024-01-06T06:27:02;1007.8;;;-3.6;57.7
53699;BME280;68408;53.952;27.612;2024-01-06T06:32:16;1007.8;;;-3.6;57.7
53699;BME280;68408;53.952;27.612;2024-01-06T06:36:54;1007.8;;;-3.6;57.8
53699;BME280;68408;53.952;27.612;2024-01-06T06:41:52;1007.9;;;-3.6;57.8
53699;BME280;68408;53.952;27.612;2024-01-06T06:46:58;1008;;;-3.5;57.9
53699;BME280;68408;53.952;27.612;2024-01-06T06:52:14;1008;;;-3.5;57.6
53699;BME280;68408;53.952;27.612;2024-01-06T06:56:34;1008;;;-3.5;57.5
53699;BME280;68408;53.952;27.612;2024-01-06T07:01:44;1008;;;-3.4;57.5
53699;BME280;68408;53.952;27.612;2024-01-06T07:07:16;1008.1;;;-3.5;57.5
53699;BME280;68408;53.952;27.612;2024-01-06T07:11:34;1008.1;;;-3.4;57.5
53699;BME280;68408;53.952;27.612;2024-01-06T07:16:34;1008.1;;;-3.4;57.4
53699;BME280;68408;53.952;27.612;2024-01-06T07:22:16;1008.2;;;-3.4;57.8
53699;BME280;68408;53.952;27.612;2024-01-06T07:26:54;1008.2;;;-3.2;57.9
53699;BME280;68408;53.952;27.612;2024-01-06T07:31:54;1008.2;;;-3.1;57.5
53699;BME280;68408;53.952;27.612;2024-01-06T07:36:52;1008.2;;;-3.1;57.4
53699;BME280;68408;53.952;27.612;2024-01-06T07:41:54;1008.2;;;-3;57.4
53699;BME280;68408;53.952;27.612;2024-01-06T07:46:52;1008.3;;;-2.9;56.9
53699;BME280;68408;53.952;27.612;2024-01-06T07:51:50;1008.4;;;-2.8;56.7
53699;BME280;68408;53.952;27.612;2024-01-06T07:57:04;1008.4;;;-2.8;56.6
53699;BME280;68408;53.952;27.612;2024-01-06T08:02:04;1008.4;;;-2.8;56.6
53699;BME280;68408;53.952;27.612;2024-01-06T08:06:48;1008.4;;;-2.7;56.5
53699;BME280;68408;53.952;27.612;2024-01-06T08:11:34;1008.4;;;-2.7;56.4
53699;BME280;68408;53.952;27.612;2024-01-06T08:17:02;1008.5;;;-2.6;56.4
53699;BME280;68408;53.952;27.612;2024-01-06T08:21:34;1008.5;;;-2.5;55.9
53699;BME280;68408;53.952;27.612;2024-01-06T08:26:34;1008.6;;;-2.5;56
53699;BME280;68408;53.952;27.612;2024-01-06T08:32:14;1008.6;;;-2.5;55.9
53699;BME280;68408;53.952;27.612;2024-01-06T08:36:56;1008.7;;;-2.5;56.4
53699;BME280;68408;53.952;27.612;2024-01-06T08:42:04;1008.7;;;-2.4;56.4
53699;BME280;68408;53.952;27.612;2024-01-06T08:46:52;1008.7;;;-2.3;57.1
53699;BME280;68408;53.952;27.612;2024-01-06T08:51:46;1008.7;;;-2.2;56.3
53699;BME280;68408;53.952;27.612;2024-01-06T08:56:34;1008.8;;;-2.1;56
53699;BME280;68408;53.952;27.612;2024-01-06T09:02:14;1008.8;;;-2;55.4
53699;BME280;68408;53.952;27.612;2024-01-06T09:06:50;1008.8;;;-2;55.5
53699;BME280;68408;53.952;27.612;2024-01-06T09:12:02;1008.8;;;-1.9;55.4
53699;BME280;68408;53.952;27.612;2024-01-06T09:17:12;1008.8;;;-1.8;55.1
53699;BME280;68408;53.952;27.612;2024-01-06T09:22:04;1008.8;;;-1.7;54.9
53699;BME280;68408;53.952;27.612;2024-01-06T09:27:04;1008.8;;;-1.7;54.6
53699;BME280;68408;53.952;27.612;2024-01-06T09:31:36;1008.9;;;-1.6;54.2
53699;BME280;68408;53.952;27.612;2024-01-06T09:37:12;1008.9;;;-1.8;54.1
53699;BME280;68408;53.952;27.612;2024-01-06T09:42:14;1009;;;-1.7;54.2
53699;BME280;68408;53.952;27.612;2024-01-06T09:46:44;1009.1;;;-1.6;53.7
53699;BME280;68408;53.952;27.612;2024-01-06T09:52:14;1009;;;-1.7;53.3
53699;BME280;68408;53.952;27.612;2024-01-06T09:56:50;1009;;;-1.6;52.8
53699;BME280;68408;53.952;27.612;2024-01-06T10:01:34;1009.1;;;-1.6;52.4
53699;BME280;68408;53.952;27.612;2024-01-06T10:07:04;1009;;;-1.7;52
53699;BME280;68408;53.952;27.612;2024-01-06T10:12:16;1009;;;-1.7;52.4
53699;BME280;68408;53.952;27.612;2024-01-06T10:17:00;1009.1;;;-1.6;52.5
53699;BME280;68408;53.952;27.612;2024-01-06T10:22:06;1009.1;;;-1.7;51.7
53699;BME280;68408;53.952;27.612;2024-01-06T10:27:14;1009.1;;;-2;52
53699;BME280;68408;53.952;27.612;2024-01-06T10:31:34;1009.1;;;-2;52.3
53699;BME280;68408;53.952;27.612;2024-01-06T10:37:15;1009.1;;;-1.8;51.8
53699;BME280;68408;53.952;27.612;2024-01-06T10:41:42;1009.1;;;-1.8;51.4
53699;BME280;68408;53.952;27.612;2024-01-06T10:46:34;1009.1;;;-1.9;51.8
53699;BME280;68408;53.952;27.612;2024-01-06T10:51:42;1009.1;;;-1.9;52.1
53699;BME280;68408;53.952;27.612;2024-01-06T10:57:12;1009;;;-1.9;52.2
53699;BME280;68408;53.952;27.612;2024-01-06T11:01:34;1009;;;-1.9;52.1
53699;BME280;68408;53.952;27.612;2024-01-06T11:06:46;1009.1;;;-2.1;52.8
53699;BME280;68408;53.952;27.612;2024-01-06T11:12:00;1009;;;-2;53
53699;BME280;68408;53.952;27.612;2024-01-06T11:16:35;1009;;;-2;53
53699;BME280;68408;53.952;27.612;2024-01-06T11:21:56;1009;;;-1.9;52.7
53699;BME280;68408;53.952;27.612;2024-01-06T11:26:44;1009;;;-1.9;52.5
53699;BME280;68408;53.952;27.612;2024-01-06T11:32:18;1009.1;;;-1.9;52.2
53699;BME280;68408;53.952;27.612;2024-01-06T11:36:44;1009.1;;;-1.9;52.3
53699;BME280;68408;53.952;27.612;2024-01-06T11:41:52;1009.2;;;-1.9;51.9
53699;BME280;68408;53.952;27.612;2024-01-06T11:47:17;1009.2;;;-1.9;51.8
53699;BME280;68408;53.952;27.612;2024-01-06T11:52:00;1009.3;;;-1.9;51.8
53699;BME280;68408;53.952;27.612;2024-01-06T11:56:34;1009.4;;;-1.9;51
53699;BME280;68408;53.952;27.612;2024-01-06T12:01:36;1009.5;;;-2.1;51.2
53699;BME280;68408;53.952;27.612;2024-01-06T12:07:16;1009.5;;;-2.1;51.5
53699;BME280;68408;53.952;27.612;2024-01-06T12:12:00;1009.5;;;-2;51.4
53699;BME280;68408;53.952;27.612;2024-01-06T12:16:34;1009.6;;;-2;51.4
53699;BME280;68408;53.952;27.612;2024-01-06T12:21:34;1009.6;;;-2.1;51.1
53699;BME280;68408;53.952;27.612;2024-01-06T12:27:14;1009.6;;;-2.2;51.6
53699;BME280;68408;53.952;27.612;2024-01-06T12:32:14;1009.7;;;-2.3;51.6
53699;BME280;68408;53.952;27.612;2024-01-06T12:36:46;1009.8;;;-2.2;51.7
53699;BME280;68408;53.952;27.612;2024-01-06T12:42:04;1009.8;;;-2.1;51.7
53699;BME280;68408;53.952;27.612;2024-01-06T12:46:42;1009.9;;;-2.2;51.6
53699;BME280;68408;53.952;27.612;2024-01-06T12:51:42;1009.9;;;-2.2;51.9
53699;BME280;68408;53.952;27.612;2024-01-06T12:57:18;1009.9;;;-2.3;51.9
53699;BME280;68408;53.952;27.612;2024-01-06T13:01:54;1010;;;-2.4;51.9
53699;BME280;68408;53.952;27.612;2024-01-06T13:07:16;1010.1;;;-2.6;52.2
53699;BME280;68408;53.952;27.612;2024-01-06T13:11:34;1010.1;;;-2.7;52.8
53699;BME280;68408;53.952;27.612;2024-01-06T13:17:06;1010.2;;;-2.9;53.3
53699;BME280;68408;53.952;27.612;2024-01-06T13:22:16;1010.2;;;-2.9;53.5
53699;BME280;68408;53.952;27.612;2024-01-06T13:26:50;1010.3;;;-3;53.8
53699;BME280;68408;53.952;27.612;2024-01-06T13:32:04;1010.3;;;-3.2;54.2
53699;BME280;68408;53.952;27.612;2024-01-06T13:36:34;1010.4;;;-3.3;54.5
53699;BME280;68408;53.952;27.612;2024-01-06T13:41:52;1010.5;;;-3.4;54.6
53699;BME280;68408;53.952;27.612;2024-01-06T13:47:16;1010.6;;;-3.5;55.2
53699;BME280;68408;53.952;27.612;2024-01-06T13:51:34;1010.7;;;-3.7;56
53699;BME280;68408;53.952;27.612;2024-01-06T13:56:56;1010.8;;;-3.8;56.5
53699;BME280;68408;53.952;27.612;2024-01-06T14:01:34;1010.8;;;-3.9;56.4
53699;BME280;68408;53.952;27.612;2024-01-06T14:07:14;1010.8;;;-4;56.7
53699;BME280;68408;53.952;27.612;2024-01-06T14:12:18;1010.9;;;-4.1;57
53699;BME280;68408;53.952;27.612;2024-01-06T14:16:42;1011;;;-4.2;56.8
53699;BME280;68408;53.952;27.612;2024-01-06T14:22:06;1010.9;;;-4.2;56.8
53699;BME280;68408;53.952;27.612;2024-01-06T14:26:50;1011;;;-4.3;56.9
53699;BME280;68408;53.952;27.612;2024-01-06T14:31:34;1011;;;-4.3;56.6
53699;BME280;68408;53.952;27.612;2024-01-06T14:37:19;1011.1;;;-4.4;56
53699;BME280;68408;53.952;27.612;2024-01-06T14:41:40;1011.1;;;-4.5;56.1
53699;BME280;68408;53.952;27.612;2024-01-06T14:46:34;1011.2;;;-4.6;56.1
53699;BME280;68408;53.952;27.612;2024-01-06T14:51:56;1011.2;;;-4.8;55.9
53699;BME280;68408;53.952;27.612;2024-01-06T14:56:54;1011.3;;;-4.9;56
53699;BME280;68408;53.952;27.612;2024-01-06T15:02:05;1011.2;;;-4.9;56.3
53699;BME280;68408;53.952;27.612;2024-01-06T15:07:16;1011.3;;;-4.9;55.8
53699;BME280;68408;53.952;27.612;2024-01-06T15:12:05;1011.4;;;-5;55.9
53699;BME280;68408;53.952;27.612;2024-01-06T15:17:04;1011.4;;;-5;55.8
53699;BME280;68408;53.952;27.612;2024-01-06T15:21:52;1011.4;;;-5;55.5
53699;BME280;68408;53.952;27.612;2024-01-06T15:27:04;1011.5;;;-5.1;55.4
53699;BME280;68408;53.952;27.612;2024-01-06T15:32:18;1011.4;;;-5.2;55.6
53699;BME280;68408;53.952;27.612;2024-01-06T15:36:34;1011.4;;;-5.1;55.4
53699;BME280;68408;53.952;27.612;2024-01-06T15:42:16;1011.4;;;-5.2;55.1
53699;BME280;68408;53.952;27.612;2024-01-06T15:46:54;1011.5;;;-5.2;54.9
53699;BME280;68408;53.952;27.612;2024-01-06T15:52:16;1011.6;;;-5.2;54.9
53699;BME280;68408;53.952;27.612;2024-01-06T15:57:18;1011.6;;;-5.2;54.8
53699;BME280;68408;53.952;27.612;2024-01-06T16:02:04;1011.6;;;-5.4;54.7
53699;BME280;68408;53.952;27.612;2024-01-06T16:06:56;1011.7;;;-5.4;54.8
53699;BME280;68408;53.952;27.612;2024-01-06T16:11:54;1011.7;;;-5.4;54.4
53699;BME280;68408;53.952;27.612;2024-01-06T16:17:04;1011.8;;;-5.6;54.6
53699;BME280;68408;53.952;27.612;2024-01-06T16:21:54;1011.9;;;-5.6;55
53699;BME280;68408;53.952;27.612;2024-01-06T16:26:34;1011.9;;;-5.8;55
53699;BME280;68408;53.952;27.612;2024-01-06T16:32:06;1012;;;-6;55.5
53699;BME280;68408;53.952;27.612;2024-01-06T16:36:54;1012;;;-6;55.8
53699;BME280;68408;53.952;27.612;2024-01-06T16:41:56;1012.1;;;-6.1;55.6
53699;BME280;68408;53.952;27.612;2024-01-06T16:47:16;1012.1;;;-6.2;55.6
53699;BME280;68408;53.952;27.612;2024-01-06T16:52:04;1012.3;;;-6.2;55.1
53699;BME280;68408;53.952;27.612;2024-01-06T16:56:56;1012.4;;;-6.3;55.3
53699;BME280;68408;53.952;27.612;2024-01-06T17:01:34;1012.4;;;-6.4;55.3
53699;BME280;68408;53.952;27.612;2024-01-06T17:06:53;1012.4;;;-6.4;55.9
53699;BME280;68408;53.952;27.612;2024-01-06T17:12:05;1012.5;;;-6.5;56.5
53699;BME280;68408;53.952;27.612;2024-01-06T17:16:34;1012.7;;;-6.6;56.7
53699;BME280;68408;53.952;27.612;2024-01-06T17:22:18;1012.8;;;-6.7;57.2
53699;BME280;68408;53.952;27.612;2024-01-06T17:26:52;1012.9;;;-6.8;57.6
53699;BME280;68408;53.952;27.612;2024-01-06T17:32:18;1013;;;-7;59
53699;BME280;68408;53.952;27.612;2024-01-06T17:36:38;1013;;;-7;57.7
53699;BME280;68408;53.952;27.612;2024-01-06T17:41:44;1013.1;;;-7.1;57.7
53699;BME280;68408;53.952;27.612;2024-01-06T17:47:18;1013.2;;;-7.1;56.8
53699;BME280;68408;53.952;27.612;2024-01-06T17:52:08;1013.2;;;-7.2;56
53699;BME280;68408;53.952;27.612;2024-01-06T17:57:04;1013.3;;;-7.3;55.7
53699;BME280;68408;53.952;27.612;2024-01-06T18:01:42;1013.3;;;-7.4;55.7
53699;BME280;68408;53.952;27.612;2024-01-06T18:06:42;1013.4;;;-7.4;56.1
53699;BME280;68408;53.952;27.612;2024-01-06T18:12:18;1013.5;;;-7.4;56.4
53699;BME280;68408;53.952;27.612;2024-01-06T18:16:34;1013.6;;;-7.5;56.6
53699;BME280;68408;53.952;27.612;2024-01-06T18:22:18;1013.7;;;-7.6;55.6
53699;BME280;68408;53.952;27.612;2024-01-06T18:27:18;1013.7;;;-7.6;55.8
53699;BME280;68408;53.952;27.612;2024-01-06T18:32:05;1013.7;;;-7.6;55.9
53699;BME280;68408;53.952;27.612;2024-01-06T18:37:04;1013.8;;;-7.6;55.9
53699;BME280;68408;53.952;27.612;2024-01-06T18:42:00;1013.8;;;-7.7;56.1
53699;BME280;68408;53.952;27.612;2024-01-06T18:47:05;1013.8;;;-7.7;56.5
53699;BME280;68408;53.952;27.612;2024-01-06T18:51:40;1013.8;;;-7.8;57.6
53699;BME280;68408;53.952;27.612;2024-01-06T18:56:34;1013.8;;;-7.9;57.5
53699;BME280;68408;53.952;27.612;2024-01-06T19:02:18;1014;;;-8;57.3
53699;BME280;68408;53.952;27.612;2024-01-06T19:06:54;1014;;;-8.1;57.4
53699;BME280;68408;53.952;27.612;2024-01-06T19:12:16;1014;;;-8.1;57.6
53699;BME280;68408;53.952;27.612;2024-01-06T19:17:04;1014.1;;;-8.2;57.3
53699;BME280;68408;53.952;27.612;2024-01-06T19:22:18;1014.2;;;-8.5;56.3
53699;BME280;68408;53.952;27.612;2024-01-06T19:27:18;1014.3;;;-8.8;56
53699;BME280;68408;53.952;27.612;2024-01-06T19:31:54;1014.4;;;-9.1;55.7
53699;BME280;68408;53.952;27.612;2024-01-06T19:37:16;1014.5;;;-9.3;55.7
53699;BME280;68408;53.952;27.612;2024-01-06T19:41:34;1014.5;;;-9.5;56
53699;BME280;68408;53.952;27.612;2024-01-06T19:46:42;1014.6;;;-9.7;56
53699;BME280;68408;53.952;27.612;2024-01-06T19:52:02;1014.6;;;-9.8;55.9
53699;BME280;68408;53.952;27.612;2024-01-06T19:56:50;1014.6;;;-9.9;55.8
53699;BME280;68408;53.952;27.612;2024-01-06T20:02:18;1014.6;;;-10.1;55.9
53699;BME280;68408;53.952;27.612;2024-01-06T20:07:04;1014.7;;;-10.2;56.1
53699;BME280;68408;53.952;27.612;2024-01-06T20:12:18;1014.7;;;-10.3;56.6
53699;BME280;68408;53.952;27.612;2024-01-06T20:17:16;1014.7;;;-10.4;56.8
53699;BME280;68408;53.952;27.612;2024-01-06T20:21:46;1014.8;;;-10.6;57.1
53699;BME280;68408;53.952;27.612;2024-01-06T20:26:34;1014.9;;;-10.8;57.6
53699;BME280;68408;53.952;27.612;2024-01-06T20:31:34;1015;;;-11;57.9
53699;BME280;68408;53.952;27.612;2024-01-06T20:36:42;1015;;;-11.2;58.5
53699;BME280;68408;53.952;27.612;2024-01-06T20:42:03;1015;;;-11.3;58.9
53699;BME280;68408;53.952;27.612;2024-01-06T20:47:16;1015.1;;;-11.4;59.2
53699;BME280;68408;53.952;27.612;2024-01-06T20:52:18;1015.1;;;-11.4;59.3
53699;BME280;68408;53.952;27.612;2024-01-06T20:57:04;1015.2;;;-11.5;59.4
53699;BME280;68408;53.952;27.612;2024-01-06T21:02:16;1015.2;;;-11.6;59.6
53699;BME280;68408;53.952;27.612;2024-01-06T21:06:36;1015.2;;;-11.7;60
53699;BME280;68408;53.952;27.612;2024-01-06T21:12:05;1015.2;;;-11.8;60.2
53699;BME280;68408;53.952;27.612;2024-01-06T21:16:52;1015.2;;;-11.8;60.3
53699;BME280;68408;53.952;27.612;2024-01-06T21:21:43;1015.2;;;-11.9;60.2
53699;BME280;68408;53.952;27.612;2024-01-06T21:26:34;1015.3;;;-12.1;60.5
53699;BME280;68408;53.952;27.612;2024-01-06T21:32:03;1015.4;;;-12.1;60.8
53699;BME280;68408;53.952;27.612;2024-01-06T21:36:37;1015.4;;;-12.2;61.1
53699;BME280;68408;53.952;27.612;2024-01-06T21:42:10;1015.5;;;-12.2;61.1
53699;BME280;68408;53.952;27.612;2024-01-06T21:47:05;1015.5;;;-12.2;61
53699;BME280;68408;53.952;27.612;2024-01-06T21:52:18;1015.5;;;-12.3;61
53699;BME280;68408;53.952;27.612;2024-01-06T21:57:18;1015.6;;;-12.4;61.1
53699;BME280;68408;53.952;27.612;2024-01-06T22:01:54;1015.7;;;-12.5;61.3
53699;BME280;68408;53.952;27.612;2024-01-06T22:06:52;1015.7;;;-12.6;61.5
53699;BME280;68408;53.952;27.612;2024-01-06T22:11:42;1015.8;;;-12.6;61.7
53699;BME280;68408;53.952;27.612;2024-01-06T22:16:34;1015.9;;;-12.6;61.6
53699;BME280;68408;53.952;27.612;2024-01-06T22:22:04;1016;;;-12.8;61.5
53699;BME280;68408;53.952;27.612;2024-01-06T22:26:54;1015.9;;;-12.8;61.7
53699;BME280;68408;53.952;27.612;2024-01-06T22:32:18;1015.9;;;-12.8;61.8
53699;BME280;68408;53.952;27.612;2024-01-06T22:37:18;1016;;;-12.8;61.6
53699;BME280;68408;53.952;27.612;2024-01-06T22:42:18;1015.9;;;-12.7;61.5
53699;BME280;68408;53.952;27.612;2024-01-06T22:47:06;1016;;;-12.8;61.1
53699;BME280;68408;53.952;27.612;2024-01-06T22:51:34;1016;;;-12.8;61
53699;BME280;68408;53.952;27.612;2024-01-06T22:56:54;1016;;;-12.9;61.3
53699;BME280;68408;53.952;27.612;2024-01-06T23:01:34;1016;;;-12.9;61.2
53699;BME280;68408;53.952;27.612;2024-01-06T23:06:44;1016;;;-12.8;61.1
53699;BME280;68408;53.952;27.612;2024-01-06T23:11:48;1016;;;-12.8;60.8
53699;BME280;68408;53.952;27.612;2024-01-06T23:16:54;1016.1;;;-12.9;60.7
53699;BME280;68408;53.952;27.612;2024-01-06T23:22:18;1016;;;-13;61
53699;BME280;68408;53.952;27.612;2024-01-06T23:27:04;1016.2;;;-13.1;61
53699;BME280;68408;53.952;27.612;2024-01-06T23:32:18;1016.2;;;-13.1;61.2
53699;BME280;68408;53.952;27.612;2024-01-06T23:37:18;1016.3;;;-13.2;61.2
53699;BME280;68408;53.952;27.612;2024-01-06T23:41:54;1016.4;;;-13.3;61.1
53699;BME280;68408;53.952;27.612;2024-01-06T23:46:54;1016.4;;;-13.4;61.4
53699;BME280;68408;53.952;27.612;2024-01-06T23:51:35;1016.4;;;-13.4;61.4
53699;BME280;68408;53.952;27.612;2024-01-06T23:56:46;1016.5;;;-13.4;61.5
